Archival Weather

Republic

Farmingdale, New York (KFRG)

Report from: Monday, February 19, 2024 3:53 AM EST
Current time: Saturday, June 22, 2024 4:41 AM EDT

Current weather – Weather history – Daily summaries
Weather forecast

Temperature-0.6°C (30.9°F)
Wind chill-3.2°C (26.2°F)
Dew point-8.3°C (17.1°F)
Winds 4 kts (2.1 m/s, 4.6 mph) West (260°)
Visibility10 mi. (16.1 km)
Clouds Sky clear
Altimeter29.98 in.Hg (1015 mB)
Relative humidity56 %
Density altitude-1,921 ft. (-585 m)
Sea-level pressure101.5 kPa (1015 mB, 29.98 in.Hg)
Remarks Fully automated report
Automated weather observing station without precipitation discriminator
Freezing rain sensor not operating
Pressure rising more slowly
Flight conditions Visual Meteorological Conditions
Raw dataKFRG 190853Z AUTO 26004KT 10SM CLR M01/M08 A2998 RMK AO1 SLP152 T10061083 51012 FZRANO
An error has occurred. This application may no longer respond until reloaded. Reload 🗙